Normanna, Texas
Current Conditions -  °F | °C
As of 6:55 AM on Friday 19 Dec 2014 (Local Time) from KBEA Reporting Station
Light Rain Light Rain  
Wind Chill: 13°   Ceiling: 500
Heat Index: 13°   Visibility: 10mi
Dew Point: 13°   Wind: 14mph
Humidity: 100%   Direction: 20°NNE
Pressure: 29.99"   Gusts: 21mph
Location:  28.53°N, 97.78°W
Report Text: KBEA 191255Z AUTO 02012G18KT 10SM -RA BKN005 OVC013 13/13 A2999 RMK AO2 LTG DSNT NE P0002 T01260126
Loading
Personal Weather Stations






























Interactive Weather Map New forecast layout! Learn more

10-Day Weather Forecast

Advertisements
Track Severe Weather on mobile